Time;durP1;ratioP1;P1;durP2;ratioP2;P2;SDS_P1;SDS_P2;PMS_P1;PMS_P2;Temp;Humidity;BMP_temperature;BMP_pressure;BME280_temperature;BME280_humidity;BME280_pressure;Samples;Min_cycle;Max_cycle;Signal;HPM_P1;HPM_P2
2022/12/17 13:06:10;;;;;;;12.07;7.20;;;;;;;;;;5111508;28;20070;-43
2022/12/17 13:08:37;;;;;;;12.75;8.23;;;;;;;;;;5111341;28;20165;-43
2022/12/17 13:11:10;;;;;;;13.32;7.70;;;;;;;;;;5110457;28;20099;-43
2022/12/17 13:13:54;;;;;;;13.38;7.72;;;;;;;;;;5111135;28;20418;-43
2022/12/17 13:16:28;;;;;;;13.50;8.02;;;;;;;;;;5110414;28;20031;-43
2022/12/17 13:19:02;;;;;;;14.60;8.52;;;;;;;;;;5110411;28;20038;-43
2022/12/17 13:21:30;;;;;;;13.25;8.90;;;;;;;;;;5110826;28;20031;-42
2022/12/17 13:23:56;;;;;;;13.80;8.45;;;;;;;;;;5110742;28;20537;-43
2022/12/17 13:26:41;;;;;;;12.98;8.05;;;;;;;;;;5109906;28;20106;-43
2022/12/17 13:29:11;;;;;;;13.85;8.10;;;;;;;;;;5105849;28;20024;-43
2022/12/17 13:32:16;;;;;;;14.25;8.57;;;;;;;;;;5111358;28;20038;-43
2022/12/17 13:34:50;;;;;;;13.57;8.20;;;;;;;;;;5028524;28;20035;-44
2022/12/17 13:37:22;;;;;;;12.65;7.43;;;;;;;;;;5028283;28;20123;-43
2022/12/17 13:40:08;;;;;;;32.83;25.88;;;;;;;;;;5067662;28;20105;-43
2022/12/17 13:42:35;;;;;;;22.88;19.23;;;;;;;;;;5109269;28;20044;-44
2022/12/17 13:45:02;;;;;;;28.73;19.65;;;;;;;;;;5110425;28;20020;-43
2022/12/17 13:47:29;;;;;;;32.03;20.92;;;;;;;;;;5110769;28;20593;-44
2022/12/17 13:49:57;;;;;;;28.13;18.63;;;;;;;;;;5110093;28;20444;-43
2022/12/17 13:52:24;;;;;;;24.58;16.98;;;;;;;;;;5106919;28;20637;-43
2022/12/17 13:54:50;;;;;;;23.90;15.48;;;;;;;;;;5107383;28;20119;-43
2022/12/17 13:57:17;;;;;;;19.77;12.75;;;;;;;;;;5109689;28;20035;-42
2022/12/17 13:59:54;;;;;;;19.00;12.00;;;;;;;;;;5110169;28;20099;-43
2022/12/17 14:02:27;;;;;;;16.58;10.82;;;;;;;;;;5109560;28;20032;-43
2022/12/17 14:04:54;;;;;;;17.25;10.25;;;;;;;;;;5109863;28;20027;-44
2022/12/17 14:07:21;;;;;;;14.27;9.15;;;;;;;;;;5109655;28;20104;-43
2022/12/17 14:09:47;;;;;;;13.60;8.23;;;;;;;;;;5109599;28;20027;-43
2022/12/17 14:12:20;;;;;;;13.90;8.90;;;;;;;;;;5091706;27;20193;-42
2022/12/17 14:14:48;;;;;;;13.07;8.65;;;;;;;;;;5130245;27;20450;-42
2022/12/17 14:17:18;;;;;;;15.55;8.82;;;;;;;;;;5129989;27;20031;-43
2022/12/17 14:19:44;;;;;;;13.82;8.68;;;;;;;;;;5129985;27;20038;-43
2022/12/17 14:22:16;;;;;;;13.88;8.35;;;;;;;;;;5129717;27;20055;-43
2022/12/17 14:24:43;;;;;;;12.95;8.02;;;;;;;;;;5116889;27;20053;-42
2022/12/17 14:27:26;;;;;;;14.65;8.77;;;;;;;;;;5109203;28;20024;-42
2022/12/17 14:29:52;;;;;;;13.63;7.80;;;;;;;;;;5109309;28;20103;-42
2022/12/17 14:32:22;;;;;;;16.40;9.10;;;;;;;;;;5108911;28;20152;-43
2022/12/17 14:34:48;;;;;;;16.65;8.85;;;;;;;;;;5090832;28;20570;-44
2022/12/17 14:37:20;;;;;;;19.63;9.93;;;;;;;;;;5108990;28;20032;-42
2022/12/17 14:39:47;;;;;;;16.65;8.75;;;;;;;;;;5088144;28;20028;-41
2022/12/17 14:42:24;;;;;;;14.93;8.55;;;;;;;;;;5092912;28;20032;-42
2022/12/17 14:44:50;;;;;;;15.88;8.20;;;;;;;;;;5089027;28;20043;-42
2022/12/17 14:47:29;;;;;;;14.63;8.05;;;;;;;;;;5088793;28;20470;-42
2022/12/17 14:50:04;;;;;;;15.82;8.18;;;;;;;;;;5088815;28;20090;-42
2022/12/17 14:52:38;;;;;;;14.18;8.25;;;;;;;;;;5100030;28;20059;-42
2022/12/17 14:55:23;;;;;;;13.85;8.02;;;;;;;;;;5108578;28;20024;-42
2022/12/17 14:57:53;;;;;;;14.02;7.65;;;;;;;;;;5108902;28;20107;-42
2022/12/17 15:00:19;;;;;;;14.73;8.45;;;;;;;;;;5107539;28;20028;-42
2022/12/17 15:02:51;;;;;;;16.58;9.20;;;;;;;;;;5107374;28;20039;-42
2022/12/17 15:05:18;;;;;;;19.50;10.95;;;;;;;;;;5108626;28;20134;-42
2022/12/17 15:07:45;;;;;;;19.80;10.73;;;;;;;;;;5108620;28;20042;-42
2022/12/17 15:10:12;;;;;;;19.95;10.40;;;;;;;;;;5108460;28;20414;-42
2022/12/17 15:12:40;;;;;;;16.73;10.13;;;;;;;;;;5108513;28;20046;-42
2022/12/17 15:15:06;;;;;;;16.95;9.85;;;;;;;;;;5108521;28;20031;-43
2022/12/17 15:17:33;;;;;;;17.02;9.60;;;;;;;;;;5108734;28;20035;-41
2022/12/17 15:19:59;;;;;;;17.17;10.13;;;;;;;;;;5108805;28;20447;-43
2022/12/17 15:22:25;;;;;;;16.75;9.77;;;;;;;;;;5108580;28;20106;-42
2022/12/17 15:24:52;;;;;;;17.40;9.88;;;;;;;;;;5115088;28;20092;-43
2022/12/17 15:27:18;;;;;;;20.85;10.20;;;;;;;;;;5115327;28;20558;-42
2022/12/17 15:29:44;;;;;;;22.10;10.57;;;;;;;;;;5114130;28;20437;-42
2022/12/17 15:32:18;;;;;;;20.08;10.73;;;;;;;;;;5115098;28;20051;-42
2022/12/17 15:34:44;;;;;;;;;;;;;;;;;;5115562;28;20692;-42
2022/12/17 15:37:10;;;;;;;23.58;11.63;;;;;;;;;;5115323;28;19949;-42
2022/12/17 15:39:36;;;;;;;23.05;12.52;;;;;;;;;;5134857;27;20490;-42
2022/12/17 15:44:47;;;;;;;34.30;15.50;;;;;;;;;;5094857;28;20043;-42
2022/12/17 15:47:14;;;;;;;34.97;15.13;;;;;;;;;;5094495;28;20024;-42
2022/12/17 15:49:43;;;;;;;32.28;14.15;;;;;;;;;;5094487;28;20498;-42
2022/12/17 15:52:09;;;;;;;25.92;12.63;;;;;;;;;;5094702;28;20491;-42
2022/12/17 15:54:35;;;;;;;26.70;12.73;;;;;;;;;;5105786;28;20482;-42
2022/12/17 15:57:01;;;;;;;28.45;13.55;;;;;;;;;;5115388;28;20038;-42
2022/12/17 15:59:27;;;;;;;27.80;13.90;;;;;;;;;;5114918;28;20159;-42
2022/12/17 16:01:53;;;;;;;24.85;12.25;;;;;;;;;;5103385;28;20236;-42
2022/12/17 16:04:19;;;;;;;21.92;12.60;;;;;;;;;;5094586;28;20391;-42
2022/12/17 16:06:46;;;;;;;19.52;10.85;;;;;;;;;;5094732;28;20035;-42
2022/12/17 16:09:13;;;;;;;22.98;13.07;;;;;;;;;;5100641;28;20052;-42
2022/12/17 16:11:40;;;;;;;23.50;12.13;;;;;;;;;;5113937;28;20024;-42
2022/12/17 16:14:06;;;;;;;37.83;16.60;;;;;;;;;;5111213;28;20043;-42
2022/12/17 16:16:32;;;;;;;41.20;18.25;;;;;;;;;;5114233;28;20126;-44
2022/12/17 16:18:58;;;;;;;42.40;19.05;;;;;;;;;;5097026;28;20039;-43
2022/12/17 16:21:24;;;;;;;45.08;19.95;;;;;;;;;;5105089;28;20563;-42
2022/12/17 16:23:50;;;;;;;36.13;17.73;;;;;;;;;;5112996;28;20032;-42
2022/12/17 16:26:16;;;;;;;33.28;16.00;;;;;;;;;;5115043;27;20024;-43
2022/12/17 16:28:42;;;;;;;32.88;15.88;;;;;;;;;;5114829;28;20415;-42
2022/12/17 16:31:10;;;;;;;25.92;13.00;;;;;;;;;;5114763;28;20112;-42
2022/12/17 16:33:38;;;;;;;24.05;12.98;;;;;;;;;;5114839;28;20055;-42
2022/12/17 16:36:05;;;;;;;23.92;12.60;;;;;;;;;;5111230;28;20078;-42
2022/12/17 16:38:31;;;;;;;19.42;11.20;;;;;;;;;;5111597;28;20118;-42
2022/12/17 16:40:58;;;;;;;22.45;12.13;;;;;;;;;;5111424;28;20518;-43
2022/12/17 16:43:26;;;;;;;18.42;10.80;;;;;;;;;;5106921;28;20077;-42
2022/12/17 16:45:52;;;;;;;21.80;12.63;;;;;;;;;;5111341;28;20034;-42
2022/12/17 16:48:19;;;;;;;18.85;11.93;;;;;;;;;;5111247;28;20024;-42
2022/12/17 16:50:46;;;;;;;18.70;10.30;;;;;;;;;;5111250;28;20081;-42
2022/12/17 16:53:13;;;;;;;20.05;11.25;;;;;;;;;;5111048;28;20024;-43
2022/12/17 16:55:43;;;;;;;16.90;9.85;;;;;;;;;;5111163;28;20031;-43
2022/12/17 16:58:09;;;;;;;14.13;9.05;;;;;;;;;;5110923;28;20064;-43
2022/12/17 17:00:35;;;;;;;16.85;9.90;;;;;;;;;;5111087;28;20091;-43
2022/12/17 17:03:02;;;;;;;17.58;10.18;;;;;;;;;;5110480;28;20028;-43
2022/12/17 17:05:30;;;;;;;15.02;9.05;;;;;;;;;;5094407;28;20223;-42
2022/12/17 17:07:57;;;;;;;16.23;9.88;;;;;;;;;;5110737;28;20500;-42
2022/12/17 17:10:23;;;;;;;19.77;11.38;;;;;;;;;;5110711;28;20107;-42
2022/12/17 17:12:51;;;;;;;18.65;11.25;;;;;;;;;;5109714;28;20157;-42
2022/12/17 17:15:17;;;;;;;16.42;10.25;;;;;;;;;;5110637;28;20032;-42
2022/12/17 17:17:43;;;;;;;15.98;10.48;;;;;;;;;;5110445;28;20058;-42
2022/12/17 17:20:09;;;;;;;19.50;10.63;;;;;;;;;;5110192;28;20032;-42
2022/12/17 17:22:35;;;;;;;18.58;10.27;;;;;;;;;;5110119;28;20375;-42
2022/12/17 17:25:01;;;;;;;15.85;9.02;;;;;;;;;;5110152;28;20035;-43
2022/12/17 17:27:28;;;;;;;16.05;9.57;;;;;;;;;;5110248;28;20028;-43
2022/12/17 17:29:55;;;;;;;19.40;11.38;;;;;;;;;;5108332;28;20116;-42
2022/12/17 17:32:21;;;;;;;21.00;11.73;;;;;;;;;;5089912;28;21862;-43
2022/12/17 17:34:48;;;;;;;25.38;12.90;;;;;;;;;;5098290;28;20399;-42
2022/12/17 17:37:14;;;;;;;22.45;13.10;;;;;;;;;;5110005;28;20036;-43
2022/12/17 17:39:40;;;;;;;24.63;13.00;;;;;;;;;;5109837;28;20046;-42
2022/12/17 17:42:06;;;;;;;24.33;12.32;;;;;;;;;;5109557;28;20027;-43
2022/12/17 17:44:32;;;;;;;28.42;13.70;;;;;;;;;;5100199;28;20410;-43
2022/12/17 17:46:58;;;;;;;29.10;14.55;;;;;;;;;;5108730;28;20563;-43
2022/12/17 17:49:25;;;;;;;31.50;14.98;;;;;;;;;;5109966;28;20098;-43
2022/12/17 17:51:51;;;;;;;30.40;14.85;;;;;;;;;;5109988;28;20102;-43
2022/12/17 17:54:17;;;;;;;25.77;14.25;;;;;;;;;;5109724;28;20557;-43
2022/12/17 17:56:43;;;;;;;24.77;13.05;;;;;;;;;;5109909;28;20027;-43
2022/12/17 17:59:10;;;;;;;24.70;13.50;;;;;;;;;;5109982;28;20028;-43
2022/12/17 18:01:39;;;;;;;23.80;13.88;;;;;;;;;;5109407;28;20457;-42
2022/12/17 18:04:06;;;;;;;21.23;12.73;;;;;;;;;;5109294;28;20549;-43
2022/12/17 18:06:32;;;;;;;20.63;11.10;;;;;;;;;;5109985;28;20421;-43
2022/12/17 18:08:59;;;;;;;21.70;12.38;;;;;;;;;;5109446;28;20687;-43
2022/12/17 18:11:27;;;;;;;19.88;11.50;;;;;;;;;;5109005;28;20030;-44
2022/12/17 18:13:56;;;;;;;19.48;11.18;;;;;;;;;;5109299;28;20043;-43
2022/12/17 18:16:24;;;;;;;18.60;10.43;;;;;;;;;;5109567;28;20028;-43
2022/12/17 18:18:51;;;;;;;17.52;10.20;;;;;;;;;;5109568;28;20401;-43
2022/12/17 18:21:19;;;;;;;16.58;10.10;;;;;;;;;;5107669;28;20027;-44
2022/12/17 18:23:46;;;;;;;16.50;9.45;;;;;;;;;;5106640;28;20103;-43
2022/12/17 18:26:13;;;;;;;16.58;9.57;;;;;;;;;;5109150;28;20035;-43
2022/12/17 18:28:40;;;;;;;14.07;8.35;;;;;;;;;;5108041;28;20026;-44
2022/12/17 18:31:07;;;;;;;13.57;8.40;;;;;;;;;;5107940;28;20062;-44
2022/12/17 18:33:33;;;;;;;16.30;8.85;;;;;;;;;;5090427;28;20393;-43
2022/12/17 18:35:59;;;;;;;18.75;9.82;;;;;;;;;;5109225;28;20034;-43
2022/12/17 18:38:26;;;;;;;19.15;10.82;;;;;;;;;;5108957;28;20023;-43
2022/12/17 18:40:53;;;;;;;17.55;10.30;;;;;;;;;;5108981;28;20426;-43
2022/12/17 18:43:22;;;;;;;17.13;10.48;;;;;;;;;;5106697;28;20031;-43
2022/12/17 18:45:50;;;;;;;19.25;11.63;;;;;;;;;;5094551;28;20036;-44
2022/12/17 18:48:18;;;;;;;24.35;13.30;;;;;;;;;;5088616;28;20016;-44
2022/12/17 18:50:44;;;;;;;25.83;13.43;;;;;;;;;;5088437;28;20043;-43
2022/12/17 18:53:10;;;;;;;20.65;12.18;;;;;;;;;;5095252;28;20024;-43
2022/12/17 18:55:40;;;;;;;21.88;12.32;;;;;;;;;;5096441;28;20033;-44
2022/12/17 18:58:06;;;;;;;21.98;12.75;;;;;;;;;;5107866;28;20111;-46
2022/12/17 19:00:33;;;;;;;21.08;12.18;;;;;;;;;;5106479;28;20028;-43
2022/12/17 19:02:59;;;;;;;19.35;11.73;;;;;;;;;;5086083;28;20571;-43
2022/12/17 19:05:25;;;;;;;19.15;11.18;;;;;;;;;;5101396;28;20148;-44
2022/12/17 19:07:51;;;;;;;18.67;11.45;;;;;;;;;;5086296;28;20027;-43
2022/12/17 19:10:17;;;;;;;19.52;11.52;;;;;;;;;;5105612;28;20027;-43
2022/12/17 19:12:43;;;;;;;23.02;12.65;;;;;;;;;;5088702;28;20536;-44
2022/12/17 19:15:09;;;;;;;23.02;12.02;;;;;;;;;;5106603;28;20070;-44
2022/12/17 19:17:35;;;;;;;18.50;10.98;;;;;;;;;;5102030;28;20402;-44
2022/12/17 19:20:01;;;;;;;17.10;10.63;;;;;;;;;;5104030;28;20028;-43
2022/12/17 19:22:27;;;;;;;16.30;10.50;;;;;;;;;;5111419;28;20394;-45
2022/12/17 19:24:54;;;;;;;18.60;10.93;;;;;;;;;;5095047;28;20055;-44
2022/12/17 19:27:20;;;;;;;15.80;10.15;;;;;;;;;;5105235;28;20026;-44
2022/12/17 19:29:46;;;;;;;17.67;10.18;;;;;;;;;;5086356;28;20046;-45
2022/12/17 19:32:12;;;;;;;15.75;9.65;;;;;;;;;;5105406;28;20028;-44
2022/12/17 19:34:38;;;;;;;15.20;9.30;;;;;;;;;;5103016;28;20036;-43
2022/12/17 19:37:04;;;;;;;15.82;9.82;;;;;;;;;;5107092;28;20059;-44
2022/12/17 19:39:30;;;;;;;17.08;9.85;;;;;;;;;;5107591;28;20038;-43
2022/12/17 19:41:56;;;;;;;21.40;11.93;;;;;;;;;;5107228;28;20032;-43
2022/12/17 19:44:23;;;;;;;17.88;10.50;;;;;;;;;;5106903;28;20123;-43
2022/12/17 19:46:50;;;;;;;17.50;10.45;;;;;;;;;;5106950;28;20024;-44
2022/12/17 19:49:16;;;;;;;21.08;11.25;;;;;;;;;;5088703;28;20100;-43
2022/12/17 19:51:42;;;;;;;17.75;10.93;;;;;;;;;;5106855;28;20106;-44
2022/12/17 19:54:10;;;;;;;18.88;10.88;;;;;;;;;;5106959;28;20560;-42
2022/12/17 19:56:37;;;;;;;18.40;10.57;;;;;;;;;;5088707;28;20034;-44
2022/12/17 19:59:05;;;;;;;19.60;10.93;;;;;;;;;;5093566;28;20123;-43
2022/12/17 20:01:32;;;;;;;17.73;11.20;;;;;;;;;;5103742;28;20096;-43
2022/12/17 20:03:58;;;;;;;18.00;10.85;;;;;;;;;;5106331;28;20027;-43
2022/12/17 20:06:26;;;;;;;18.02;10.68;;;;;;;;;;5106553;28;20031;-43
2022/12/17 20:08:52;;;;;;;19.73;12.25;;;;;;;;;;5083805;28;20539;-44
2022/12/17 20:11:33;;;;;;;19.27;11.18;;;;;;;;;;5108443;28;20879;-43
2022/12/17 20:14:02;;;;;;;20.35;11.38;;;;;;;;;;5092367;28;20042;-43
2022/12/17 20:16:29;;;;;;;21.85;12.45;;;;;;;;;;5109631;28;20577;-43
2022/12/17 20:18:55;;;;;;;18.60;11.32;;;;;;;;;;5108110;27;20055;-43
2022/12/17 20:21:21;;;;;;;21.88;12.63;;;;;;;;;;5087417;28;20353;-45
2022/12/17 20:23:49;;;;;;;20.50;11.23;;;;;;;;;;5100184;28;20501;-43
2022/12/17 20:26:15;;;;;;;23.25;12.02;;;;;;;;;;5107962;28;20030;-44
2022/12/17 20:28:41;;;;;;;19.67;11.52;;;;;;;;;;5108480;28;20020;-44
2022/12/17 20:31:08;;;;;;;18.92;11.07;;;;;;;;;;5107641;28;20490;-44
2022/12/17 20:33:34;;;;;;;20.02;11.20;;;;;;;;;;5108485;28;20453;-42
2022/12/17 20:36:07;;;;;;;18.50;10.35;;;;;;;;;;5107782;28;20098;-43
2022/12/17 20:38:34;;;;;;;18.70;10.98;;;;;;;;;;5103278;28;20020;-44
2022/12/17 20:41:00;;;;;;;20.98;11.23;;;;;;;;;;5107169;28;20099;-44
2022/12/17 20:43:26;;;;;;;19.17;11.07;;;;;;;;;;5108480;28;20112;-44
2022/12/17 20:45:54;;;;;;;21.23;11.60;;;;;;;;;;5107948;27;20032;-44
2022/12/17 20:48:21;;;;;;;21.05;12.05;;;;;;;;;;5089174;28;20035;-43
2022/12/17 20:50:48;;;;;;;22.58;11.90;;;;;;;;;;5108092;28;20050;-43
2022/12/17 20:53:15;;;;;;;20.63;11.65;;;;;;;;;;5108217;28;20032;-44
2022/12/17 20:55:41;;;;;;;18.92;11.30;;;;;;;;;;5107755;28;20059;-43
2022/12/17 20:58:08;;;;;;;18.67;11.65;;;;;;;;;;5106862;28;20030;-44
2022/12/17 21:00:34;;;;;;;20.88;12.32;;;;;;;;;;5107476;28;20106;-42
2022/12/17 21:03:00;;;;;;;22.90;13.05;;;;;;;;;;5107563;28;20449;-43
2022/12/17 21:05:27;;;;;;;19.60;11.27;;;;;;;;;;5103588;28;20505;-43
2022/12/17 21:07:54;;;;;;;20.55;12.25;;;;;;;;;;5105825;28;20245;-44
2022/12/17 21:10:20;;;;;;;21.50;11.75;;;;;;;;;;5084464;28;20023;-44
2022/12/17 21:15:31;;;;;;;23.25;13.85;;;;;;;;;;5097281;28;20093;-43
2022/12/17 21:17:57;;;;;;;19.77;11.88;;;;;;;;;;5107618;28;20024;-43
2022/12/17 21:20:23;;;;;;;20.05;12.13;;;;;;;;;;5087106;28;20032;-44
2022/12/17 21:22:49;;;;;;;22.73;13.13;;;;;;;;;;5106571;28;20469;-44
2022/12/17 21:25:15;;;;;;;23.63;13.75;;;;;;;;;;5106057;28;20034;-44
2022/12/17 21:27:41;;;;;;;23.77;12.93;;;;;;;;;;5107061;28;20035;-45
2022/12/17 21:30:08;;;;;;;24.48;13.35;;;;;;;;;;5107011;28;20028;-44
2022/12/17 21:32:35;;;;;;;23.10;14.10;;;;;;;;;;5106072;28;20602;-43
2022/12/17 21:35:01;;;;;;;23.60;13.25;;;;;;;;;;5108003;28;20031;-43
2022/12/17 21:37:27;;;;;;;27.73;14.77;;;;;;;;;;5107338;28;20523;-44
2022/12/17 21:39:53;;;;;;;23.20;13.55;;;;;;;;;;5100555;28;20465;-45
2022/12/17 21:45:03;;;;;;;24.25;13.18;;;;;;;;;;5099460;28;20088;-43
2022/12/17 21:47:29;;;;;;;26.85;14.23;;;;;;;;;;5107472;28;20028;-44
2022/12/17 21:49:56;;;;;;;26.13;14.23;;;;;;;;;;5108140;28;20036;-44
2022/12/17 21:52:23;;;;;;;26.30;14.45;;;;;;;;;;5107605;28;20027;-43
2022/12/17 21:54:49;;;;;;;28.75;14.50;;;;;;;;;;5108261;28;20036;-44
2022/12/17 21:57:15;;;;;;;26.13;14.55;;;;;;;;;;5107633;28;20466;-44
2022/12/17 21:59:41;;;;;;;24.38;14.10;;;;;;;;;;5108474;28;20059;-45
2022/12/17 22:02:09;;;;;;;25.15;14.27;;;;;;;;;;5107238;28;20024;-44
2022/12/17 22:04:35;;;;;;;28.35;15.77;;;;;;;;;;5107793;28;20024;-44
2022/12/17 22:07:01;;;;;;;28.40;15.05;;;;;;;;;;5108149;28;20120;-44
2022/12/17 22:09:27;;;;;;;33.95;17.92;;;;;;;;;;5088605;28;20383;-45
2022/12/17 22:14:01;;;;;;;32.38;16.33;;;;;;;;;;5107575;28;20031;-45
2022/12/17 22:14:39;;;;;;;30.38;15.40;;;;;;;;;;5108424;28;20678;-45
2022/12/17 22:17:05;;;;;;;30.70;15.93;;;;;;;;;;5108096;28;20035;-44
2022/12/17 22:19:32;;;;;;;30.33;15.95;;;;;;;;;;5108744;28;20028;-45
2022/12/17 22:21:58;;;;;;;28.58;14.63;;;;;;;;;;5108014;28;20473;-43
2022/12/17 22:24:24;;;;;;;29.80;15.57;;;;;;;;;;5108384;28;20561;-44
2022/12/17 22:26:58;;;;;;;34.58;18.23;;;;;;;;;;5108446;28;20019;-44
2022/12/17 22:34:55;;;;;;;39.72;19.35;;;;;;;;;;5108360;28;20038;-44
2022/12/17 22:37:21;;;;;;;37.95;17.85;;;;;;;;;;5107581;28;20042;-43
2022/12/17 22:39:47;;;;;;;32.10;17.02;;;;;;;;;;5107925;28;20028;-43
2022/12/17 22:44:58;;;;;;;36.58;18.20;;;;;;;;;;5107941;28;20031;-43
2022/12/17 22:47:24;;;;;;;34.35;17.92;;;;;;;;;;5107937;28;20023;-44
2022/12/17 22:49:50;;;;;;;31.85;16.60;;;;;;;;;;5107596;28;20039;-47
2022/12/17 22:52:16;;;;;;;31.65;16.45;;;;;;;;;;5107448;28;20035;-44
2022/12/17 22:54:43;;;;;;;30.70;15.73;;;;;;;;;;5107892;28;20028;-45
2022/12/17 22:57:09;;;;;;;31.35;16.00;;;;;;;;;;5107340;28;20028;-44
2022/12/17 22:59:35;;;;;;;30.10;15.93;;;;;;;;;;5107865;28;20375;-44
2022/12/17 23:02:01;;;;;;;33.83;16.38;;;;;;;;;;5107517;28;20031;-44
2022/12/17 23:04:27;;;;;;;29.58;15.82;;;;;;;;;;5107760;28;20409;-44
2022/12/17 23:06:53;;;;;;;30.75;16.20;;;;;;;;;;5107986;28;20718;-45
2022/12/17 23:09:19;;;;;;;28.88;14.80;;;;;;;;;;5089108;28;20023;-44
2022/12/17 23:11:46;;;;;;;30.02;15.50;;;;;;;;;;5107837;28;20111;-44
2022/12/17 23:14:12;;;;;;;31.58;15.13;;;;;;;;;;5089027;28;20031;-43
2022/12/17 23:16:38;;;;;;;32.25;16.60;;;;;;;;;;5087491;28;20384;-44
2022/12/17 23:19:06;;;;;;;30.90;15.88;;;;;;;;;;5068752;28;20314;-43
2022/12/17 23:21:32;;;;;;;39.47;19.17;;;;;;;;;;5087073;28;20036;-43
2022/12/17 23:23:58;;;;;;;34.30;17.98;;;;;;;;;;5085544;28;20050;-43
2022/12/17 23:26:26;;;;;;;38.25;18.80;;;;;;;;;;5087088;28;20537;-44
2022/12/17 23:28:53;;;;;;;38.10;19.35;;;;;;;;;;5087137;28;20483;-44
2022/12/17 23:31:20;;;;;;;40.72;19.48;;;;;;;;;;5086542;28;20035;-43
2022/12/17 23:33:46;;;;;;;34.78;18.15;;;;;;;;;;5086928;28;20024;-44
2022/12/17 23:36:13;;;;;;;35.33;17.65;;;;;;;;;;5086575;28;20042;-43
2022/12/17 23:38:39;;;;;;;33.03;18.15;;;;;;;;;;5069141;28;20028;-44
2022/12/17 23:41:07;;;;;;;36.85;18.35;;;;;;;;;;5086994;28;20110;-44
2022/12/17 23:43:33;;;;;;;40.08;20.23;;;;;;;;;;5087190;28;20024;-45
2022/12/17 23:45:59;;;;;;;35.53;18.38;;;;;;;;;;5091776;28;20023;-43
2022/12/17 23:48:33;;;;;;;37.67;18.08;;;;;;;;;;5072647;28;20060;-45
2022/12/17 23:50:59;;;;;;;37.55;18.13;;;;;;;;;;5091081;28;20107;-43
2022/12/17 23:53:26;;;;;;;30.85;16.27;;;;;;;;;;5091169;28;20028;-44
2022/12/17 23:55:52;;;;;;;35.55;17.60;;;;;;;;;;5090677;28;20093;-44
2022/12/17 23:58:18;;;;;;;33.00;16.33;;;;;;;;;;5090458;28;20027;-43
